createdAt,value
2018-01-19T00:00:08.840Z,1.10
2018-01-19T00:02:36.933Z,1.00
2018-01-19T00:05:04.487Z,1.00
2018-01-19T00:07:32.811Z,0.90
2018-01-19T00:10:00.254Z,1.07
2018-01-19T00:12:27.772Z,1.10
2018-01-19T00:14:55.233Z,0.80
2018-01-19T00:17:22.760Z,0.80
2018-01-19T00:19:50.227Z,0.80
2018-01-19T00:22:17.747Z,0.70
2018-01-19T00:24:45.830Z,0.87
2018-01-19T00:27:14.082Z,0.80
2018-01-19T00:29:41.519Z,0.70
2018-01-19T00:32:09.001Z,0.90
2018-01-19T00:34:36.542Z,1.17
2018-01-19T00:37:03.986Z,0.90
2018-01-19T00:39:31.436Z,0.80
2018-01-19T00:41:59.057Z,1.00
2018-01-19T00:44:26.529Z,0.83
2018-01-19T00:46:53.974Z,1.20
2018-01-19T00:49:21.460Z,0.80
2018-01-19T00:51:48.890Z,0.80
2018-01-19T00:54:16.362Z,1.03
2018-01-19T00:56:44.479Z,0.80
2018-01-19T00:59:11.911Z,2.23
2018-01-19T01:01:39.390Z,1.33
2018-01-19T01:04:06.833Z,1.13
2018-01-19T01:06:34.433Z,1.20
2018-01-19T01:09:01.883Z,1.07
2018-01-19T01:11:29.413Z,1.37
2018-01-19T01:13:56.926Z,1.13
2018-01-19T01:16:24.379Z,1.00
2018-01-19T01:18:51.827Z,1.30
2018-01-19T01:21:19.633Z,0.90
2018-01-19T01:23:47.078Z,1.00
2018-01-19T01:26:14.774Z,1.27
2018-01-19T01:28:42.228Z,1.00
2018-01-19T01:31:09.683Z,1.03
2018-01-19T01:33:37.145Z,1.13
2018-01-19T01:36:04.591Z,1.13
2018-01-19T01:38:32.616Z,0.90
2018-01-19T01:41:00.154Z,0.97
2018-01-19T01:43:27.586Z,1.00
2018-01-19T01:45:55.037Z,1.10
2018-01-19T01:48:22.476Z,1.10
2018-01-19T01:50:49.925Z,0.77
2018-01-19T01:53:17.428Z,1.17
2018-01-19T01:55:44.886Z,0.73
2018-01-19T01:58:12.325Z,1.00
2018-01-19T02:00:39.782Z,1.20
2018-01-19T02:03:07.218Z,1.57
2018-01-19T02:05:34.659Z,1.43
2018-01-19T02:08:02.120Z,1.10
2018-01-19T02:10:29.582Z,0.87
2018-01-19T02:12:57.014Z,1.10
2018-01-19T02:15:24.499Z,0.90
2018-01-19T02:17:51.946Z,1.17
2018-01-19T02:20:19.602Z,0.87
2018-01-19T02:22:47.058Z,0.90
2018-01-19T02:25:14.508Z,0.90
2018-01-19T02:27:42.064Z,1.10
2018-01-19T02:30:09.580Z,1.17
2018-01-19T02:32:37.015Z,0.90
2018-01-19T02:35:04.448Z,1.13
2018-01-19T02:37:31.935Z,1.10
2018-01-19T02:39:59.393Z,1.33
2018-01-19T02:42:27.054Z,1.30
2018-01-19T02:44:54.559Z,1.17
2018-01-19T02:47:21.995Z,1.00
2018-01-19T02:49:49.554Z,1.10
2018-01-19T02:52:17.126Z,1.10
2018-01-19T02:54:45.688Z,1.10
2018-01-19T02:57:13.154Z,1.40
2018-01-19T02:59:40.684Z,1.20
2018-01-19T03:02:08.120Z,1.20
2018-01-19T03:04:35.556Z,1.40
2018-01-19T03:07:03.015Z,1.27
2018-01-19T03:09:30.462Z,1.33
2018-01-19T03:11:57.906Z,1.20
2018-01-19T03:14:25.354Z,1.20
2018-01-19T03:16:52.786Z,1.10
2018-01-19T03:19:20.228Z,1.30
2018-01-19T03:21:47.702Z,1.13
2018-01-19T03:24:15.142Z,1.37
2018-01-19T03:26:42.602Z,1.20
2018-01-19T03:29:10.114Z,1.13
2018-01-19T03:31:37.562Z,1.20
2018-01-19T03:34:05.177Z,1.20
2018-01-19T03:36:32.618Z,1.07
2018-01-19T03:39:00.078Z,1.07
2018-01-19T03:41:27.561Z,0.90
2018-01-19T03:43:55.007Z,1.00
2018-01-19T03:46:22.467Z,1.23
2018-01-19T03:48:50.012Z,1.43
2018-01-19T03:51:17.585Z,1.10
2018-01-19T03:53:45.058Z,1.57
2018-01-19T03:56:12.570Z,1.10
2018-01-19T03:58:40.062Z,1.90
2018-01-19T04:01:07.514Z,1.00
2018-01-19T04:03:34.990Z,0.80
2018-01-19T04:06:02.426Z,1.07
2018-01-19T04:08:29.873Z,1.00
2018-01-19T04:10:57.407Z,1.10
2018-01-19T04:13:24.868Z,1.30
2018-01-19T04:15:52.309Z,0.83
2018-01-19T04:18:19.781Z,0.97
2018-01-19T04:20:47.248Z,0.90
2018-01-19T04:23:14.692Z,1.10
2018-01-19T04:25:42.136Z,0.87
2018-01-19T04:28:09.590Z,1.00
2018-01-19T04:30:37.047Z,0.87
2018-01-19T04:33:04.528Z,0.80
2018-01-19T04:35:31.980Z,0.80
2018-01-19T04:37:59.466Z,1.10
2018-01-19T04:40:26.928Z,1.40
2018-01-19T04:42:54.378Z,0.83
2018-01-19T04:45:21.833Z,0.70
2018-01-19T04:47:49.291Z,0.80
2018-01-19T04:50:16.973Z,1.00
2018-01-19T04:52:44.412Z,0.83
2018-01-19T04:55:11.888Z,0.90
2018-01-19T04:57:39.333Z,0.70
2018-01-19T05:00:06.778Z,0.70
2018-01-19T05:02:35.182Z,0.80
2018-01-19T05:05:02.623Z,0.77
2018-01-19T05:07:30.059Z,0.73
2018-01-19T05:09:57.500Z,0.70
2018-01-19T05:12:24.990Z,0.67
2018-01-19T05:14:52.425Z,0.97
2018-01-19T05:17:19.947Z,0.80
2018-01-19T05:19:47.387Z,0.80
2018-01-19T05:22:14.936Z,0.60
2018-01-19T05:24:42.394Z,1.23
2018-01-19T05:27:09.839Z,0.60
2018-01-19T05:29:37.293Z,0.60
2018-01-19T05:32:04.768Z,0.60
2018-01-19T05:34:32.199Z,0.60
2018-01-19T05:36:59.656Z,0.80
2018-01-19T05:39:27.113Z,0.83
2018-01-19T05:41:54.544Z,0.73
2018-01-19T05:44:21.981Z,0.67
2018-01-19T05:46:49.546Z,0.70
2018-01-19T05:49:16.994Z,0.90
2018-01-19T05:51:44.438Z,0.70
2018-01-19T05:54:11.882Z,0.60
2018-01-19T05:56:39.319Z,0.93
2018-01-19T05:59:06.802Z,0.77
2018-01-19T06:01:34.257Z,0.83
2018-01-19T06:04:01.733Z,0.97
2018-01-19T06:06:29.420Z,0.80
2018-01-19T06:08:56.866Z,0.90
2018-01-19T06:11:24.307Z,1.50
2018-01-19T06:13:51.764Z,1.13
2018-01-19T06:16:19.219Z,1.20
2018-01-19T06:18:47.267Z,0.70
2018-01-19T06:21:14.833Z,1.00
2018-01-19T06:23:42.294Z,1.00
2018-01-19T06:26:09.740Z,1.00
2018-01-19T06:28:37.343Z,0.90
2018-01-19T06:31:04.807Z,0.97
2018-01-19T06:33:32.244Z,1.10
2018-01-19T06:35:59.690Z,1.00
2018-01-19T06:38:27.156Z,1.30
2018-01-19T06:40:54.614Z,0.87
2018-01-19T06:43:22.063Z,0.93
2018-01-19T06:45:49.531Z,1.13
2018-01-19T06:48:17.063Z,1.40
2018-01-19T06:50:44.546Z,1.20
2018-01-19T06:53:12.052Z,0.87
2018-01-19T06:55:39.508Z,1.10
2018-01-19T06:58:06.965Z,1.03
2018-01-19T07:00:34.455Z,1.60
2018-01-19T07:03:01.920Z,1.70
2018-01-19T07:05:29.372Z,1.60
2018-01-19T07:07:56.824Z,1.73
2018-01-19T07:10:24.286Z,1.40
2018-01-19T07:12:51.775Z,1.50
2018-01-19T07:15:19.419Z,1.43
2018-01-19T07:17:52.675Z,1.47
2018-01-19T07:20:20.117Z,1.17
2018-01-19T07:22:47.591Z,1.13
2018-01-19T07:25:15.032Z,1.47
2018-01-19T07:27:42.495Z,1.10
2018-01-19T07:30:09.959Z,1.20
2018-01-19T07:32:37.686Z,0.90
2018-01-19T07:35:05.141Z,1.20
2018-01-19T07:37:32.597Z,1.50
2018-01-19T07:40:00.067Z,1.00
2018-01-19T07:42:27.726Z,1.40
2018-01-19T07:44:55.210Z,1.30
2018-01-19T07:47:22.717Z,1.40
2018-01-19T07:49:50.142Z,1.23
2018-01-19T07:52:17.657Z,1.20
2018-01-19T07:54:45.321Z,1.00
2018-01-19T07:57:12.774Z,1.30
2018-01-19T07:59:40.262Z,0.93
2018-01-19T08:02:07.729Z,2.40
2018-01-19T08:04:35.175Z,2.10
2018-01-19T08:07:02.611Z,1.60
2018-01-19T08:09:30.063Z,1.40
2018-01-19T08:11:57.546Z,1.20
2018-01-19T08:14:24.983Z,1.57
2018-01-19T08:16:52.446Z,1.30
2018-01-19T08:19:19.880Z,1.50
2018-01-19T08:21:47.320Z,1.73
2018-01-19T08:24:14.818Z,1.50
2018-01-19T08:26:42.270Z,2.00
2018-01-19T08:29:09.719Z,1.70
2018-01-19T08:31:37.184Z,1.60
2018-01-19T08:34:04.648Z,1.67
2018-01-19T08:36:32.337Z,1.80
2018-01-19T08:38:59.779Z,1.50
2018-01-19T08:41:27.265Z,1.90
2018-01-19T08:43:54.728Z,1.77
2018-01-19T08:46:22.175Z,1.60
2018-01-19T08:48:49.635Z,1.87
2018-01-19T08:51:17.917Z,1.60
2018-01-19T08:53:45.358Z,1.80
2018-01-19T08:56:12.813Z,1.70
2018-01-19T08:58:40.266Z,1.40
2018-01-19T09:01:07.728Z,1.40
2018-01-19T09:03:35.211Z,1.47
2018-01-19T09:06:02.635Z,1.37
2018-01-19T09:08:30.075Z,1.73
2018-01-19T09:10:57.521Z,1.37
2018-01-19T09:13:24.980Z,1.50
2018-01-19T09:15:52.438Z,2.00
2018-01-19T09:18:19.913Z,1.77
2018-01-19T09:20:47.352Z,1.73
2018-01-19T09:23:14.836Z,2.30
2018-01-19T09:25:42.592Z,2.30
2018-01-19T09:28:10.149Z,2.47
2018-01-19T09:30:37.890Z,2.23
2018-01-19T09:33:05.383Z,2.53
2018-01-19T09:35:32.838Z,2.60
2018-01-19T09:38:00.282Z,2.10
2018-01-19T09:40:27.739Z,2.73
2018-01-19T09:42:55.203Z,2.00
2018-01-19T09:45:22.632Z,2.30
2018-01-19T09:47:50.074Z,2.57
2018-01-19T09:50:17.632Z,2.63
2018-01-19T09:52:45.062Z,2.37
2018-01-19T09:55:12.520Z,2.20
2018-01-19T09:57:39.976Z,2.00
2018-01-19T10:00:07.447Z,1.70
2018-01-19T10:02:34.925Z,2.10
2018-01-19T10:05:02.398Z,1.70
2018-01-19T10:07:29.851Z,1.80
2018-01-19T10:09:57.305Z,1.47
2018-01-19T10:12:24.914Z,1.80
2018-01-19T10:14:52.358Z,1.57
2018-01-19T10:17:19.810Z,1.27
2018-01-19T10:19:47.393Z,1.30
2018-01-19T10:22:15.106Z,1.23
2018-01-19T10:24:42.584Z,1.20
2018-01-19T10:27:10.031Z,1.30
2018-01-19T10:29:37.489Z,0.80
2018-01-19T10:32:04.929Z,1.27
2018-01-19T10:34:32.727Z,1.00
2018-01-19T10:37:00.194Z,0.90
2018-01-19T10:39:27.653Z,1.20
2018-01-19T10:41:55.118Z,1.60
2018-01-19T10:44:22.564Z,1.20
2018-01-19T10:46:50.008Z,1.20
2018-01-19T10:49:17.499Z,0.73
2018-01-19T10:51:44.974Z,0.93
2018-01-19T10:54:12.422Z,1.33
2018-01-19T10:56:39.882Z,0.77
2018-01-19T10:59:07.327Z,0.80
2018-01-19T11:01:34.793Z,0.80
2018-01-19T11:04:02.247Z,1.17
2018-01-19T11:06:29.782Z,1.00
2018-01-19T11:08:57.233Z,1.00
2018-01-19T11:11:24.726Z,1.00
2018-01-19T11:13:52.183Z,1.00
2018-01-19T11:16:19.666Z,1.00
2018-01-19T11:18:47.230Z,1.10
2018-01-19T11:21:14.716Z,0.80
2018-01-19T11:23:42.187Z,0.80
2018-01-19T11:26:09.632Z,0.90
2018-01-19T11:28:37.126Z,1.13
2018-01-19T11:31:04.588Z,1.20
2018-01-19T11:33:32.041Z,0.80
2018-01-19T11:35:59.569Z,1.17
2018-01-19T11:38:27.070Z,1.20
2018-01-19T11:40:54.561Z,0.87
2018-01-19T11:43:22.014Z,1.10
2018-01-19T11:45:49.502Z,1.10
2018-01-19T11:48:16.960Z,1.53
2018-01-19T11:50:44.407Z,1.30
2018-01-19T11:53:11.882Z,1.33
2018-01-19T11:55:39.835Z,0.90
2018-01-19T11:58:07.276Z,1.20
2018-01-19T12:00:34.772Z,1.63
2018-01-19T12:03:02.235Z,1.30
2018-01-19T12:05:29.675Z,1.30
2018-01-19T12:07:57.149Z,1.50
2018-01-19T12:10:24.602Z,1.17
2018-01-19T12:12:52.040Z,1.50
2018-01-19T12:15:19.562Z,1.77
2018-01-19T12:17:47.014Z,1.20
2018-01-19T12:20:14.491Z,1.10
2018-01-19T12:22:41.974Z,1.63
2018-01-19T12:25:09.406Z,1.20
2018-01-19T12:27:36.874Z,1.10
2018-01-19T12:30:04.450Z,0.80
2018-01-19T12:32:32.444Z,1.60
2018-01-19T12:35:00.368Z,1.07
2018-01-19T12:37:27.884Z,0.80
2018-01-19T12:39:55.345Z,1.00
2018-01-19T12:42:22.832Z,1.17
2018-01-19T12:44:50.547Z,1.50
2018-01-19T12:47:18.323Z,1.33
2018-01-19T12:49:45.826Z,1.30
2018-01-19T12:52:13.277Z,0.80
2018-01-19T12:54:40.746Z,1.00
2018-01-19T12:57:08.211Z,0.70
2018-01-19T12:59:35.664Z,1.00
2018-01-19T13:02:03.114Z,0.70
2018-01-19T13:04:30.678Z,0.80
2018-01-19T13:06:58.135Z,0.70
2018-01-19T13:09:25.623Z,1.10
2018-01-19T13:11:53.083Z,1.03
2018-01-19T13:14:20.548Z,1.23
2018-01-19T13:16:48.005Z,1.20
2018-01-19T13:19:15.447Z,0.80
2018-01-19T13:21:42.929Z,1.00
2018-01-19T13:24:10.422Z,0.80
2018-01-19T13:26:38.090Z,1.07
2018-01-19T13:29:05.553Z,0.73
2018-01-19T13:31:33.014Z,0.97
2018-01-19T13:34:00.531Z,1.00
2018-01-19T13:36:28.279Z,0.90
2018-01-19T13:38:56.469Z,1.17
2018-01-19T13:41:23.933Z,0.90
2018-01-19T13:43:51.399Z,1.00
2018-01-19T13:46:18.907Z,0.93
2018-01-19T13:48:46.407Z,0.90
2018-01-19T13:51:14.236Z,1.00
2018-01-19T13:53:41.717Z,1.33
2018-01-19T13:56:09.334Z,1.03
2018-01-19T13:58:36.955Z,1.43
2018-01-19T14:01:04.620Z,0.93
2018-01-19T14:03:32.186Z,1.60
2018-01-19T14:05:59.654Z,0.70
2018-01-19T14:08:27.493Z,1.00
2018-01-19T14:10:54.971Z,0.90
2018-01-19T14:13:22.431Z,0.77
2018-01-19T14:15:49.898Z,0.97
2018-01-19T14:18:17.382Z,0.80
2018-01-19T14:20:44.988Z,0.90
2018-01-19T14:23:12.498Z,0.97
2018-01-19T14:25:39.999Z,0.87
2018-01-19T14:28:07.465Z,0.70
2018-01-19T14:30:34.946Z,0.90
2018-01-19T14:33:02.438Z,1.27
2018-01-19T14:35:29.946Z,1.00
2018-01-19T14:37:57.420Z,1.10
2018-01-19T14:40:24.895Z,0.70
2018-01-19T14:42:52.482Z,0.83
2018-01-19T14:45:22.520Z,1.20
2018-01-19T14:47:50.110Z,0.87
2018-01-19T14:50:17.891Z,1.10
2018-01-19T14:52:45.373Z,1.00
2018-01-19T14:55:12.838Z,1.20
2018-01-19T14:57:40.314Z,1.13
2018-01-19T15:00:07.780Z,1.30
2018-01-19T15:02:35.713Z,0.80
2018-01-19T15:05:03.260Z,1.13
2018-01-19T15:07:30.722Z,1.17
2018-01-19T15:09:58.184Z,0.90
2018-01-19T15:12:25.931Z,1.37
2018-01-19T15:14:53.416Z,1.03
2018-01-19T15:17:20.916Z,1.30
2018-01-19T15:19:48.390Z,1.00
2018-01-19T15:22:16.055Z,1.27
2018-01-19T15:24:43.513Z,1.30
2018-01-19T15:27:10.974Z,1.20
2018-01-19T15:29:39.795Z,1.40
2018-01-19T15:32:07.263Z,1.43
2018-01-19T15:34:37.384Z,1.50
2018-01-19T15:37:04.898Z,1.37
2018-01-19T15:39:32.362Z,1.47
2018-01-19T15:41:59.836Z,1.43
2018-01-19T15:44:27.329Z,1.53
2018-01-19T15:46:54.827Z,1.50
2018-01-19T15:49:22.311Z,1.60
2018-01-19T15:51:49.784Z,1.40
2018-01-19T15:54:17.242Z,1.87
2018-01-19T15:56:44.732Z,1.57
2018-01-19T15:59:12.218Z,1.97
2018-01-19T16:01:39.702Z,3.50
2018-01-19T16:04:07.166Z,4.43
2018-01-19T16:06:34.664Z,2.20
2018-01-19T16:09:02.151Z,1.60
2018-01-19T16:11:29.646Z,1.40
2018-01-19T16:13:57.126Z,1.80
2018-01-19T16:16:24.630Z,1.83
2018-01-19T16:18:52.095Z,1.60
2018-01-19T16:21:19.578Z,1.63
2018-01-19T16:23:47.050Z,1.83
2018-01-19T16:26:14.545Z,1.50
2018-01-19T16:28:42.031Z,1.70
2018-01-19T16:31:09.491Z,1.77
2018-01-19T16:33:36.967Z,1.90
2018-01-19T16:36:04.465Z,2.60
2018-01-19T16:38:31.950Z,1.70
2018-01-19T16:40:59.437Z,1.80
2018-01-19T16:43:26.922Z,1.53
2018-01-19T16:45:54.404Z,1.33
2018-01-19T16:48:21.905Z,1.50
2018-01-19T16:50:49.395Z,1.47
2018-01-19T16:53:16.880Z,1.00
2018-01-19T16:55:44.387Z,1.70
2018-01-19T16:58:11.871Z,1.80
2018-01-19T17:00:39.351Z,1.40
2018-01-19T17:03:06.807Z,1.87
2018-01-19T17:05:34.428Z,1.70
2018-01-19T17:08:01.928Z,1.40
2018-01-19T17:10:29.387Z,1.40
2018-01-19T17:12:56.875Z,1.63
2018-01-19T17:15:24.357Z,1.37
2018-01-19T17:17:51.850Z,1.50
2018-01-19T17:20:20.043Z,1.60
2018-01-19T17:22:47.517Z,1.23
2018-01-19T17:25:15.042Z,1.23
2018-01-19T17:27:42.535Z,2.10
2018-01-19T17:30:09.994Z,1.83
2018-01-19T17:32:37.453Z,1.77
2018-01-19T17:35:04.913Z,1.77
2018-01-19T17:37:32.384Z,1.63
2018-01-19T17:39:59.853Z,1.90
2018-01-19T17:42:27.343Z,1.77
2018-01-19T17:44:54.823Z,1.60
2018-01-19T17:47:22.302Z,2.40
2018-01-19T17:49:49.761Z,1.63
2018-01-19T17:52:17.225Z,2.17
2018-01-19T17:54:44.672Z,3.07
2018-01-19T17:57:12.156Z,2.13
2018-01-19T17:59:39.614Z,2.80
2018-01-19T18:02:07.051Z,2.03
2018-01-19T18:04:34.558Z,2.20
2018-01-19T18:07:01.991Z,2.97
2018-01-19T18:09:29.441Z,2.43
2018-01-19T18:11:56.902Z,2.33
2018-01-19T18:14:24.336Z,2.70
2018-01-19T18:16:51.847Z,2.50
2018-01-19T18:19:19.290Z,2.50
2018-01-19T18:21:46.791Z,2.63
2018-01-19T18:24:14.240Z,2.83
2018-01-19T18:26:41.695Z,2.50
2018-01-19T18:29:09.138Z,2.40
2018-01-19T18:31:36.616Z,2.30
2018-01-19T18:36:37.846Z,2.40
2018-01-19T18:39:05.310Z,2.60
2018-01-19T18:41:32.754Z,2.60
2018-01-19T18:44:00.205Z,3.00
2018-01-19T18:46:27.670Z,3.20
2018-01-19T18:48:55.118Z,4.53
2018-01-19T18:51:22.579Z,3.03
2018-01-19T18:53:50.022Z,2.60
2018-01-19T18:56:17.499Z,3.03
2018-01-19T18:58:44.958Z,2.67
2018-01-19T19:01:12.411Z,2.30
2018-01-19T19:03:39.914Z,2.67
2018-01-19T19:06:07.366Z,2.80
2018-01-19T19:08:34.808Z,2.33
2018-01-19T19:11:02.278Z,2.80
2018-01-19T19:13:29.735Z,2.17
2018-01-19T19:15:57.216Z,1.50
2018-01-19T19:18:24.683Z,2.37
2018-01-19T19:20:52.128Z,2.40
2018-01-19T19:23:19.611Z,2.50
2018-01-19T19:25:47.077Z,2.77
2018-01-19T19:28:14.562Z,3.90
2018-01-19T19:30:42.013Z,2.90
2018-01-19T19:33:09.551Z,3.10
2018-01-19T19:35:37.015Z,2.67
2018-01-19T19:38:04.474Z,2.30
2018-01-19T19:40:31.990Z,1.80
2018-01-19T19:42:59.463Z,2.50
2018-01-19T19:45:26.922Z,2.90
2018-01-19T19:47:54.392Z,2.90
2018-01-19T19:50:21.883Z,2.70
2018-01-19T19:52:49.560Z,3.10
2018-01-19T19:55:17.349Z,2.50
2018-01-19T19:57:44.945Z,2.90
2018-01-19T20:00:12.695Z,3.30
2018-01-19T20:02:40.246Z,2.37
2018-01-19T20:05:07.720Z,3.00
2018-01-19T20:07:35.311Z,2.50
2018-01-19T20:10:02.770Z,2.30
2018-01-19T20:12:30.234Z,2.23
2018-01-19T20:14:57.695Z,2.47
2018-01-19T20:17:25.166Z,2.50
2018-01-19T20:19:52.736Z,2.70
2018-01-19T20:22:20.222Z,2.50
2018-01-19T20:24:47.902Z,3.40
2018-01-19T20:27:15.398Z,3.33
2018-01-19T20:29:44.189Z,2.80
2018-01-19T20:32:11.662Z,3.63
2018-01-19T20:34:39.199Z,2.90
2018-01-19T20:37:06.955Z,2.90
2018-01-19T20:39:34.446Z,2.87
2018-01-19T20:42:02.901Z,2.83
2018-01-19T20:44:30.480Z,2.80
2018-01-19T20:46:57.965Z,2.70
2018-01-19T20:49:25.670Z,2.60
2018-01-19T20:51:53.157Z,2.77
2018-01-19T20:54:20.625Z,3.20
2018-01-19T20:56:48.430Z,2.90
2018-01-19T20:59:17.502Z,3.00
2018-01-19T21:01:44.992Z,2.40
2018-01-19T21:04:12.685Z,2.47
2018-01-19T21:06:40.449Z,2.93
2018-01-19T21:09:07.986Z,3.60
2018-01-19T21:11:35.472Z,3.40
2018-01-19T21:14:03.000Z,2.90
2018-01-19T21:16:30.476Z,3.60
2018-01-19T21:18:57.974Z,3.40
2018-01-19T21:21:26.780Z,3.10
2018-01-19T21:23:54.440Z,3.90
2018-01-19T21:26:22.073Z,3.30
2018-01-19T21:28:49.712Z,3.20
2018-01-19T21:31:18.727Z,4.47
2018-01-19T21:33:51.672Z,4.30
2018-01-19T21:36:19.226Z,3.93
2018-01-19T21:38:48.122Z,3.30
2018-01-19T21:41:15.727Z,3.53
2018-01-19T21:43:43.255Z,4.37
2018-01-19T21:46:10.730Z,3.37
2018-01-19T21:48:38.212Z,3.53
2018-01-19T21:51:05.738Z,3.43
2018-01-19T21:53:33.276Z,2.50
2018-01-19T21:56:00.815Z,3.20
2018-01-19T21:58:28.278Z,2.77
2018-01-19T22:00:55.759Z,2.50
2018-01-19T22:03:23.256Z,2.60
2018-01-19T22:05:50.765Z,2.30
2018-01-19T22:08:18.235Z,3.10
2018-01-19T22:10:45.695Z,3.37
2018-01-19T22:13:13.147Z,2.50
2018-01-19T22:15:40.613Z,2.70
2018-01-19T22:18:08.073Z,2.93
2018-01-19T22:20:35.551Z,2.53
2018-01-19T22:23:03.122Z,3.17
2018-01-19T22:25:30.580Z,3.40
2018-01-19T22:28:02.235Z,3.03
2018-01-19T22:30:29.781Z,3.00
2018-01-19T22:32:58.942Z,2.83
2018-01-19T22:35:26.535Z,2.90
2018-01-19T22:50:50.166Z,2.37
2018-01-19T22:53:18.425Z,2.20
2018-01-19T22:55:45.883Z,2.80
2018-01-19T22:58:14.221Z,2.50
2018-01-19T23:00:45.028Z,2.93
2018-01-19T23:03:13.230Z,2.97
2018-01-19T23:05:43.400Z,2.97
2018-01-19T23:08:11.820Z,3.80
2018-01-19T23:10:39.390Z,3.23
2018-01-19T23:13:06.852Z,2.80
2018-01-19T23:15:34.313Z,3.00
2018-01-19T23:18:06.573Z,2.90
2018-01-19T23:20:34.131Z,3.53
2018-01-19T23:23:01.600Z,2.50
2018-01-19T23:25:29.082Z,2.80
2018-01-19T23:27:56.542Z,3.17
2018-01-19T23:30:24.036Z,2.47
2018-01-19T23:32:51.543Z,3.03
2018-01-19T23:35:19.052Z,2.50
2018-01-19T23:37:46.612Z,2.73
2018-01-19T23:40:14.080Z,3.40
2018-01-19T23:42:41.550Z,2.87
2018-01-19T23:45:09.006Z,3.80
2018-01-19T23:47:36.495Z,3.60
2018-01-19T23:50:03.992Z,3.37
2018-01-19T23:52:31.531Z,3.00
2018-01-19T23:54:58.998Z,3.90
2018-01-19T23:57:26.537Z,3.23
2018-01-19T23:59:54.088Z,3.37
